sensor_id;sensor_type;location;lat;lon;timestamp;pressure;altitude;pressure_sealevel;temperature
19282;BMP180;9774;52.034;5.342;2023-09-19T00:00:22;100534.00;;;21.30
19282;BMP180;9774;52.034;5.342;2023-09-19T00:02:53;100543.00;;;21.30
19282;BMP180;9774;52.034;5.342;2023-09-19T00:05:20;100533.00;;;21.30
19282;BMP180;9774;52.034;5.342;2023-09-19T00:07:50;100552.00;;;21.20
19282;BMP180;9774;52.034;5.342;2023-09-19T00:10:20;100559.00;;;21.20
19282;BMP180;9774;52.034;5.342;2023-09-19T00:12:50;100549.00;;;21.20
19282;BMP180;9774;52.034;5.342;2023-09-19T00:15:19;100552.00;;;21.20
19282;BMP180;9774;52.034;5.342;2023-09-19T00:17:46;100550.00;;;21.20
19282;BMP180;9774;52.034;5.342;2023-09-19T00:20:14;100553.00;;;21.10
19282;BMP180;9774;52.034;5.342;2023-09-19T00:22:44;100554.00;;;21.10
19282;BMP180;9774;52.034;5.342;2023-09-19T00:25:11;100563.00;;;21.20
19282;BMP180;9774;52.034;5.342;2023-09-19T00:27:41;100556.00;;;21.20
19282;BMP180;9774;52.034;5.342;2023-09-19T00:30:11;100556.00;;;21.10
19282;BMP180;9774;52.034;5.342;2023-09-19T00:32:43;100565.00;;;21.10
19282;BMP180;9774;52.034;5.342;2023-09-19T00:35:10;100563.00;;;21.10
19282;BMP180;9774;52.034;5.342;2023-09-19T00:37:37;100570.00;;;21.10
19282;BMP180;9774;52.034;5.342;2023-09-19T00:40:07;100572.00;;;21.10
19282;BMP180;9774;52.034;5.342;2023-09-19T00:42:38;100565.00;;;21.10
19282;BMP180;9774;52.034;5.342;2023-09-19T00:45:08;100565.00;;;21.10
19282;BMP180;9774;52.034;5.342;2023-09-19T00:47:37;100565.00;;;21.10
19282;BMP180;9774;52.034;5.342;2023-09-19T00:50:09;100566.00;;;21.10
19282;BMP180;9774;52.034;5.342;2023-09-19T00:52:38;100573.00;;;21.10
19282;BMP180;9774;52.034;5.342;2023-09-19T00:55:07;100566.00;;;21.10
19282;BMP180;9774;52.034;5.342;2023-09-19T00:57:35;100574.00;;;21.10
19282;BMP180;9774;52.034;5.342;2023-09-19T01:00:05;100573.00;;;21.10
19282;BMP180;9774;52.034;5.342;2023-09-19T01:02:35;100580.00;;;21.10
19282;BMP180;9774;52.034;5.342;2023-09-19T01:05:03;100573.00;;;21.10
19282;BMP180;9774;52.034;5.342;2023-09-19T01:07:32;100583.00;;;21.10
19282;BMP180;9774;52.034;5.342;2023-09-19T01:10:00;100587.00;;;21.10
19282;BMP180;9774;52.034;5.342;2023-09-19T01:12:44;100587.00;;;21.00
19282;BMP180;9774;52.034;5.342;2023-09-19T01:15:19;100587.00;;;21.10
19282;BMP180;9774;52.034;5.342;2023-09-19T01:17:54;100586.00;;;21.10
19282;BMP180;9774;52.034;5.342;2023-09-19T01:20:36;100586.00;;;21.00
19282;BMP180;9774;52.034;5.342;2023-09-19T01:23:14;100586.00;;;21.00
19282;BMP180;9774;52.034;5.342;2023-09-19T01:26:06;100592.00;;;21.00
19282;BMP180;9774;52.034;5.342;2023-09-19T01:28:52;100596.00;;;21.00
19282;BMP180;9774;52.034;5.342;2023-09-19T01:31:24;100595.00;;;21.10
19282;BMP180;9774;52.034;5.342;2023-09-19T01:33:58;100593.00;;;21.10
19282;BMP180;9774;52.034;5.342;2023-09-19T01:36:31;100587.00;;;21.10
19282;BMP180;9774;52.034;5.342;2023-09-19T01:39:03;100583.00;;;21.10
19282;BMP180;9774;52.034;5.342;2023-09-19T01:41:59;100588.00;;;21.00
19282;BMP180;9774;52.034;5.342;2023-09-19T01:44:40;100598.00;;;21.00
19282;BMP180;9774;52.034;5.342;2023-09-19T01:47:21;100596.00;;;21.00
19282;BMP180;9774;52.034;5.342;2023-09-19T01:50:01;100598.00;;;21.00
19282;BMP180;9774;52.034;5.342;2023-09-19T01:52:36;100600.00;;;21.00
19282;BMP180;9774;52.034;5.342;2023-09-19T01:55:09;100603.00;;;21.00
19282;BMP180;9774;52.034;5.342;2023-09-19T01:57:48;100602.00;;;21.00
19282;BMP180;9774;52.034;5.342;2023-09-19T02:00:20;100603.00;;;21.00
19282;BMP180;9774;52.034;5.342;2023-09-19T02:02:51;100604.00;;;21.00
19282;BMP180;9774;52.034;5.342;2023-09-19T02:05:25;100601.00;;;20.90
19282;BMP180;9774;52.034;5.342;2023-09-19T02:07:54;100617.00;;;21.00
19282;BMP180;9774;52.034;5.342;2023-09-19T02:10:22;100617.00;;;21.00
19282;BMP180;9774;52.034;5.342;2023-09-19T02:12:50;100615.00;;;21.00
19282;BMP180;9774;52.034;5.342;2023-09-19T02:15:18;100612.00;;;20.90
19282;BMP180;9774;52.034;5.342;2023-09-19T02:17:45;100606.00;;;20.90
19282;BMP180;9774;52.034;5.342;2023-09-19T02:20:13;100603.00;;;20.90
19282;BMP180;9774;52.034;5.342;2023-09-19T02:22:42;100601.00;;;20.90
19282;BMP180;9774;52.034;5.342;2023-09-19T02:25:09;100607.00;;;20.80
19282;BMP180;9774;52.034;5.342;2023-09-19T02:27:37;100612.00;;;20.80
19282;BMP180;9774;52.034;5.342;2023-09-19T02:30:07;100618.00;;;20.70
19282;BMP180;9774;52.034;5.342;2023-09-19T02:32:34;100623.00;;;20.70
19282;BMP180;9774;52.034;5.342;2023-09-19T02:35:06;100624.00;;;20.70
19282;BMP180;9774;52.034;5.342;2023-09-19T02:37:38;100618.00;;;20.70
19282;BMP180;9774;52.034;5.342;2023-09-19T02:40:06;100626.00;;;20.60
19282;BMP180;9774;52.034;5.342;2023-09-19T02:42:44;100622.00;;;20.60
19282;BMP180;9774;52.034;5.342;2023-09-19T02:45:16;100636.00;;;20.60
19282;BMP180;9774;52.034;5.342;2023-09-19T02:47:44;100625.00;;;20.60
19282;BMP180;9774;52.034;5.342;2023-09-19T02:50:11;100632.00;;;20.50
19282;BMP180;9774;52.034;5.342;2023-09-19T02:52:42;100633.00;;;20.50
19282;BMP180;9774;52.034;5.342;2023-09-19T02:55:10;100630.00;;;20.40
19282;BMP180;9774;52.034;5.342;2023-09-19T02:57:38;100626.00;;;20.40
19282;BMP180;9774;52.034;5.342;2023-09-19T03:00:08;100631.00;;;20.40
19282;BMP180;9774;52.034;5.342;2023-09-19T03:02:36;100628.00;;;20.30
19282;BMP180;9774;52.034;5.342;2023-09-19T03:05:05;100631.00;;;20.30
19282;BMP180;9774;52.034;5.342;2023-09-19T03:07:32;100630.00;;;20.20
19282;BMP180;9774;52.034;5.342;2023-09-19T03:10:01;100628.00;;;20.20
19282;BMP180;9774;52.034;5.342;2023-09-19T03:12:29;100627.00;;;20.20
19282;BMP180;9774;52.034;5.342;2023-09-19T03:14:56;100625.00;;;20.10
19282;BMP180;9774;52.034;5.342;2023-09-19T03:17:23;100616.00;;;20.10
19282;BMP180;9774;52.034;5.342;2023-09-19T03:19:50;100611.00;;;20.10
19282;BMP180;9774;52.034;5.342;2023-09-19T03:22:16;100618.00;;;20.10
19282;BMP180;9774;52.034;5.342;2023-09-19T03:24:44;100612.00;;;20.00
19282;BMP180;9774;52.034;5.342;2023-09-19T03:27:13;100614.00;;;20.00
19282;BMP180;9774;52.034;5.342;2023-09-19T03:29:41;100627.00;;;19.90
19282;BMP180;9774;52.034;5.342;2023-09-19T03:32:08;100614.00;;;19.90
19282;BMP180;9774;52.034;5.342;2023-09-19T03:34:37;100631.00;;;19.90
19282;BMP180;9774;52.034;5.342;2023-09-19T03:37:08;100624.00;;;19.80
19282;BMP180;9774;52.034;5.342;2023-09-19T03:39:35;100618.00;;;19.80
19282;BMP180;9774;52.034;5.342;2023-09-19T03:42:03;100605.00;;;19.70
19282;BMP180;9774;52.034;5.342;2023-09-19T03:44:32;100608.00;;;19.70
19282;BMP180;9774;52.034;5.342;2023-09-19T03:46:59;100596.00;;;19.70
19282;BMP180;9774;52.034;5.342;2023-09-19T03:49:26;100599.00;;;19.70
19282;BMP180;9774;52.034;5.342;2023-09-19T03:51:53;100609.00;;;19.60
19282;BMP180;9774;52.034;5.342;2023-09-19T03:54:20;100602.00;;;19.60
19282;BMP180;9774;52.034;5.342;2023-09-19T03:56:47;100607.00;;;19.60
19282;BMP180;9774;52.034;5.342;2023-09-19T03:59:14;100610.00;;;19.60
19282;BMP180;9774;52.034;5.342;2023-09-19T04:01:42;100609.00;;;19.50
19282;BMP180;9774;52.034;5.342;2023-09-19T04:04:09;100617.00;;;19.50
19282;BMP180;9774;52.034;5.342;2023-09-19T04:06:36;100627.00;;;19.50
19282;BMP180;9774;52.034;5.342;2023-09-19T04:09:04;100629.00;;;19.40
19282;BMP180;9774;52.034;5.342;2023-09-19T04:11:32;100632.00;;;19.40
19282;BMP180;9774;52.034;5.342;2023-09-19T04:14:03;100628.00;;;19.40
19282;BMP180;9774;52.034;5.342;2023-09-19T04:16:30;100632.00;;;19.40
19282;BMP180;9774;52.034;5.342;2023-09-19T04:18:58;100646.00;;;19.40
19282;BMP180;9774;52.034;5.342;2023-09-19T04:21:25;100654.00;;;19.40
19282;BMP180;9774;52.034;5.342;2023-09-19T04:23:53;100651.00;;;19.40
19282;BMP180;9774;52.034;5.342;2023-09-19T04:26:20;100655.00;;;19.30
19282;BMP180;9774;52.034;5.342;2023-09-19T04:28:47;100659.00;;;19.30
19282;BMP180;9774;52.034;5.342;2023-09-19T04:31:14;100656.00;;;19.30
19282;BMP180;9774;52.034;5.342;2023-09-19T04:33:42;100659.00;;;19.30
19282;BMP180;9774;52.034;5.342;2023-09-19T04:36:11;100668.00;;;19.30
19282;BMP180;9774;52.034;5.342;2023-09-19T04:38:39;100669.00;;;19.30
19282;BMP180;9774;52.034;5.342;2023-09-19T04:41:07;100675.00;;;19.30
19282;BMP180;9774;52.034;5.342;2023-09-19T04:43:34;100676.00;;;19.30
19282;BMP180;9774;52.034;5.342;2023-09-19T04:46:01;100680.00;;;19.30
19282;BMP180;9774;52.034;5.342;2023-09-19T04:48:28;100675.00;;;19.30
19282;BMP180;9774;52.034;5.342;2023-09-19T04:50:55;100677.00;;;19.30
19282;BMP180;9774;52.034;5.342;2023-09-19T04:53:24;100671.00;;;19.30
19282;BMP180;9774;52.034;5.342;2023-09-19T04:55:51;100671.00;;;19.40
19282;BMP180;9774;52.034;5.342;2023-09-19T04:58:21;100674.00;;;19.40
19282;BMP180;9774;52.034;5.342;2023-09-19T05:00:48;100663.00;;;19.40
19282;BMP180;9774;52.034;5.342;2023-09-19T05:03:17;100667.00;;;19.30
19282;BMP180;9774;52.034;5.342;2023-09-19T05:05:45;100669.00;;;19.30
19282;BMP180;9774;52.034;5.342;2023-09-19T05:08:12;100676.00;;;19.30
19282;BMP180;9774;52.034;5.342;2023-09-19T05:10:41;100672.00;;;19.30
19282;BMP180;9774;52.034;5.342;2023-09-19T05:13:08;100666.00;;;19.30
19282;BMP180;9774;52.034;5.342;2023-09-19T05:15:36;100682.00;;;19.30
19282;BMP180;9774;52.034;5.342;2023-09-19T05:18:03;100677.00;;;19.30
19282;BMP180;9774;52.034;5.342;2023-09-19T05:20:32;100675.00;;;19.30
19282;BMP180;9774;52.034;5.342;2023-09-19T05:23:04;100676.00;;;19.30
19282;BMP180;9774;52.034;5.342;2023-09-19T05:25:35;100677.00;;;19.20
19282;BMP180;9774;52.034;5.342;2023-09-19T05:28:06;100687.00;;;19.20
19282;BMP180;9774;52.034;5.342;2023-09-19T05:30:34;100676.00;;;19.20
19282;BMP180;9774;52.034;5.342;2023-09-19T05:33:02;100672.00;;;19.20
19282;BMP180;9774;52.034;5.342;2023-09-19T05:35:30;100683.00;;;19.20
19282;BMP180;9774;52.034;5.342;2023-09-19T05:37:58;100679.00;;;19.30
19282;BMP180;9774;52.034;5.342;2023-09-19T05:40:26;100672.00;;;19.30
19282;BMP180;9774;52.034;5.342;2023-09-19T05:42:53;100669.00;;;19.30
19282;BMP180;9774;52.034;5.342;2023-09-19T05:45:21;100679.00;;;19.20
19282;BMP180;9774;52.034;5.342;2023-09-19T05:47:49;100682.00;;;19.30
19282;BMP180;9774;52.034;5.342;2023-09-19T05:50:17;100670.00;;;19.30
19282;BMP180;9774;52.034;5.342;2023-09-19T05:52:52;100680.00;;;19.20
19282;BMP180;9774;52.034;5.342;2023-09-19T05:55:19;100684.00;;;19.30
19282;BMP180;9774;52.034;5.342;2023-09-19T05:57:49;100685.00;;;19.30
19282;BMP180;9774;52.034;5.342;2023-09-19T06:00:18;100682.00;;;19.30
19282;BMP180;9774;52.034;5.342;2023-09-19T06:02:51;100690.00;;;19.30
19282;BMP180;9774;52.034;5.342;2023-09-19T06:05:20;100691.00;;;19.30
19282;BMP180;9774;52.034;5.342;2023-09-19T06:07:47;100696.00;;;19.40
19282;BMP180;9774;52.034;5.342;2023-09-19T06:10:14;100694.00;;;19.40
19282;BMP180;9774;52.034;5.342;2023-09-19T06:12:43;100700.00;;;19.40
19282;BMP180;9774;52.034;5.342;2023-09-19T06:15:11;100707.00;;;19.40
19282;BMP180;9774;52.034;5.342;2023-09-19T06:17:41;100708.00;;;19.40
19282;BMP180;9774;52.034;5.342;2023-09-19T06:20:11;100709.00;;;19.40
19282;BMP180;9774;52.034;5.342;2023-09-19T06:22:41;100715.00;;;19.40
19282;BMP180;9774;52.034;5.342;2023-09-19T06:25:09;100716.00;;;19.50
19282;BMP180;9774;52.034;5.342;2023-09-19T06:27:38;100713.00;;;19.50
19282;BMP180;9774;52.034;5.342;2023-09-19T06:30:08;100710.00;;;19.50
19282;BMP180;9774;52.034;5.342;2023-09-19T06:32:37;100710.00;;;19.50
19282;BMP180;9774;52.034;5.342;2023-09-19T06:35:05;100710.00;;;19.50
19282;BMP180;9774;52.034;5.342;2023-09-19T06:37:36;100707.00;;;19.60
19282;BMP180;9774;52.034;5.342;2023-09-19T06:40:08;100707.00;;;19.60
19282;BMP180;9774;52.034;5.342;2023-09-19T06:42:40;100710.00;;;19.60
19282;BMP180;9774;52.034;5.342;2023-09-19T06:45:08;100706.00;;;19.60
19282;BMP180;9774;52.034;5.342;2023-09-19T06:47:37;100712.00;;;19.70
19282;BMP180;9774;52.034;5.342;2023-09-19T06:50:05;100702.00;;;19.70
19282;BMP180;9774;52.034;5.342;2023-09-19T06:52:40;100706.00;;;19.70
19282;BMP180;9774;52.034;5.342;2023-09-19T06:55:08;100708.00;;;19.80
19282;BMP180;9774;52.034;5.342;2023-09-19T06:57:37;100710.00;;;19.80
19282;BMP180;9774;52.034;5.342;2023-09-19T07:00:07;100718.00;;;19.90
19282;BMP180;9774;52.034;5.342;2023-09-19T07:02:41;100707.00;;;19.90
19282;BMP180;9774;52.034;5.342;2023-09-19T07:05:08;100706.00;;;20.00
19282;BMP180;9774;52.034;5.342;2023-09-19T07:07:36;100712.00;;;20.00
19282;BMP180;9774;52.034;5.342;2023-09-19T07:10:05;100708.00;;;20.00
19282;BMP180;9774;52.034;5.342;2023-09-19T07:12:34;100709.00;;;20.10
19282;BMP180;9774;52.034;5.342;2023-09-19T07:15:01;100707.00;;;20.10
19282;BMP180;9774;52.034;5.342;2023-09-19T07:17:28;100716.00;;;20.20
19282;BMP180;9774;52.034;5.342;2023-09-19T07:19:55;100715.00;;;20.20
19282;BMP180;9774;52.034;5.342;2023-09-19T07:22:23;100714.00;;;20.30
19282;BMP180;9774;52.034;5.342;2023-09-19T07:24:50;100722.00;;;20.30
19282;BMP180;9774;52.034;5.342;2023-09-19T07:27:19;100730.00;;;20.40
19282;BMP180;9774;52.034;5.342;2023-09-19T07:29:46;100729.00;;;20.40
19282;BMP180;9774;52.034;5.342;2023-09-19T07:32:12;100727.00;;;20.50
19282;BMP180;9774;52.034;5.342;2023-09-19T07:34:39;100731.00;;;20.50
19282;BMP180;9774;52.034;5.342;2023-09-19T07:37:06;100732.00;;;20.60
19282;BMP180;9774;52.034;5.342;2023-09-19T07:39:35;100742.00;;;20.60
19282;BMP180;9774;52.034;5.342;2023-09-19T07:42:02;100750.00;;;20.60
19282;BMP180;9774;52.034;5.342;2023-09-19T07:44:30;100742.00;;;20.70
19282;BMP180;9774;52.034;5.342;2023-09-19T07:46:57;100738.00;;;20.70
19282;BMP180;9774;52.034;5.342;2023-09-19T07:49:24;100737.00;;;20.80
19282;BMP180;9774;52.034;5.342;2023-09-19T07:51:51;100738.00;;;20.90
19282;BMP180;9774;52.034;5.342;2023-09-19T07:54:19;100735.00;;;20.90
19282;BMP180;9774;52.034;5.342;2023-09-19T07:56:47;100734.00;;;21.00
19282;BMP180;9774;52.034;5.342;2023-09-19T07:59:14;100746.00;;;21.00
19282;BMP180;9774;52.034;5.342;2023-09-19T08:01:43;100746.00;;;21.00
19282;BMP180;9774;52.034;5.342;2023-09-19T08:04:10;100743.00;;;21.10
19282;BMP180;9774;52.034;5.342;2023-09-19T08:06:37;100746.00;;;21.20
19282;BMP180;9774;52.034;5.342;2023-09-19T08:09:05;100747.00;;;21.20
19282;BMP180;9774;52.034;5.342;2023-09-19T08:11:33;100754.00;;;21.30
19282;BMP180;9774;52.034;5.342;2023-09-19T08:14:01;100745.00;;;21.30
19282;BMP180;9774;52.034;5.342;2023-09-19T08:16:28;100756.00;;;21.40
19282;BMP180;9774;52.034;5.342;2023-09-19T08:18:56;100746.00;;;21.40
19282;BMP180;9774;52.034;5.342;2023-09-19T08:21:23;100746.00;;;21.50
19282;BMP180;9774;52.034;5.342;2023-09-19T08:23:52;100743.00;;;21.50
19282;BMP180;9774;52.034;5.342;2023-09-19T08:26:19;100746.00;;;21.60
19282;BMP180;9774;52.034;5.342;2023-09-19T08:28:47;100742.00;;;21.70
19282;BMP180;9774;52.034;5.342;2023-09-19T08:31:14;100739.00;;;21.70
19282;BMP180;9774;52.034;5.342;2023-09-19T08:33:43;100749.00;;;21.70
19282;BMP180;9774;52.034;5.342;2023-09-19T08:36:17;100741.00;;;21.70
19282;BMP180;9774;52.034;5.342;2023-09-19T08:38:44;100734.00;;;21.80
19282;BMP180;9774;52.034;5.342;2023-09-19T08:41:11;100746.00;;;21.80
19282;BMP180;9774;52.034;5.342;2023-09-19T08:43:38;100744.00;;;21.90
19282;BMP180;9774;52.034;5.342;2023-09-19T08:46:11;100744.00;;;21.80
19282;BMP180;9774;52.034;5.342;2023-09-19T08:48:45;100725.00;;;21.90
19282;BMP180;9774;52.034;5.342;2023-09-19T08:51:26;100722.00;;;21.90
19282;BMP180;9774;52.034;5.342;2023-09-19T08:54:03;100728.00;;;21.90
19282;BMP180;9774;52.034;5.342;2023-09-19T08:56:33;100723.00;;;22.00
19282;BMP180;9774;52.034;5.342;2023-09-19T08:59:03;100724.00;;;22.10
19282;BMP180;9774;52.034;5.342;2023-09-19T09:01:34;100734.00;;;22.10
19282;BMP180;9774;52.034;5.342;2023-09-19T09:04:04;100728.00;;;22.20
19282;BMP180;9774;52.034;5.342;2023-09-19T09:06:36;100733.00;;;22.30
19282;BMP180;9774;52.034;5.342;2023-09-19T09:09:05;100729.00;;;22.40
19282;BMP180;9774;52.034;5.342;2023-09-19T09:11:33;100736.00;;;22.40
19282;BMP180;9774;52.034;5.342;2023-09-19T09:14:00;100747.00;;;22.50
19282;BMP180;9774;52.034;5.342;2023-09-19T09:16:30;100736.00;;;22.50
19282;BMP180;9774;52.034;5.342;2023-09-19T09:18:57;100733.00;;;22.50
19282;BMP180;9774;52.034;5.342;2023-09-19T09:21:26;100725.00;;;22.50
19282;BMP180;9774;52.034;5.342;2023-09-19T09:23:54;100734.00;;;22.60
19282;BMP180;9774;52.034;5.342;2023-09-19T09:26:41;100720.00;;;22.50
19282;BMP180;9774;52.034;5.342;2023-09-19T09:29:09;100729.00;;;22.60
19282;BMP180;9774;52.034;5.342;2023-09-19T09:31:36;100729.00;;;22.70
19282;BMP180;9774;52.034;5.342;2023-09-19T09:34:03;100726.00;;;22.70
19282;BMP180;9774;52.034;5.342;2023-09-19T09:36:35;100717.00;;;22.70
19282;BMP180;9774;52.034;5.342;2023-09-19T09:39:04;100725.00;;;22.80
19282;BMP180;9774;52.034;5.342;2023-09-19T09:41:44;100723.00;;;22.90
19282;BMP180;9774;52.034;5.342;2023-09-19T09:44:17;100727.00;;;22.90
19282;BMP180;9774;52.034;5.342;2023-09-19T09:46:46;100721.00;;;23.00
19282;BMP180;9774;52.034;5.342;2023-09-19T09:49:30;100715.00;;;23.10
19282;BMP180;9774;52.034;5.342;2023-09-19T09:52:02;100709.00;;;23.10
19282;BMP180;9774;52.034;5.342;2023-09-19T09:54:35;100714.00;;;23.20
19282;BMP180;9774;52.034;5.342;2023-09-19T09:57:05;100719.00;;;23.30
19282;BMP180;9774;52.034;5.342;2023-09-19T09:59:49;100712.00;;;23.30
19282;BMP180;9774;52.034;5.342;2023-09-19T10:02:18;100709.00;;;23.50
19282;BMP180;9774;52.034;5.342;2023-09-19T10:04:53;100715.00;;;23.60
19282;BMP180;9774;52.034;5.342;2023-09-19T10:07:36;100714.00;;;23.70
19282;BMP180;9774;52.034;5.342;2023-09-19T10:10:09;100725.00;;;23.70
19282;BMP180;9774;52.034;5.342;2023-09-19T10:12:45;100735.00;;;23.80
19282;BMP180;9774;52.034;5.342;2023-09-19T10:15:16;100731.00;;;23.80
19282;BMP180;9774;52.034;5.342;2023-09-19T10:17:46;100726.00;;;23.80
19282;BMP180;9774;52.034;5.342;2023-09-19T10:20:16;100736.00;;;23.80
19282;BMP180;9774;52.034;5.342;2023-09-19T10:23:06;100728.00;;;23.80
19282;BMP180;9774;52.034;5.342;2023-09-19T10:25:42;100724.00;;;23.80
19282;BMP180;9774;52.034;5.342;2023-09-19T10:28:13;100720.00;;;23.80
19282;BMP180;9774;52.034;5.342;2023-09-19T10:30:43;100716.00;;;23.80
19282;BMP180;9774;52.034;5.342;2023-09-19T10:33:12;100704.00;;;23.90
19282;BMP180;9774;52.034;5.342;2023-09-19T10:35:42;100699.00;;;23.90
19282;BMP180;9774;52.034;5.342;2023-09-19T10:38:11;100704.00;;;23.90
19282;BMP180;9774;52.034;5.342;2023-09-19T10:40:40;100697.00;;;23.90
19282;BMP180;9774;52.034;5.342;2023-09-19T10:43:16;100687.00;;;23.90
19282;BMP180;9774;52.034;5.342;2023-09-19T10:45:46;100695.00;;;24.00
19282;BMP180;9774;52.034;5.342;2023-09-19T10:48:15;100689.00;;;24.00
19282;BMP180;9774;52.034;5.342;2023-09-19T10:50:49;100676.00;;;24.00
19282;BMP180;9774;52.034;5.342;2023-09-19T10:53:18;100668.00;;;24.00
19282;BMP180;9774;52.034;5.342;2023-09-19T10:55:58;100686.00;;;23.90
19282;BMP180;9774;52.034;5.342;2023-09-19T10:58:28;100683.00;;;24.00
19282;BMP180;9774;52.034;5.342;2023-09-19T11:00:57;100685.00;;;24.00
19282;BMP180;9774;52.034;5.342;2023-09-19T11:03:31;100663.00;;;24.00
19282;BMP180;9774;52.034;5.342;2023-09-19T11:06:05;100678.00;;;24.00
19282;BMP180;9774;52.034;5.342;2023-09-19T11:09:08;100662.00;;;24.00
19282;BMP180;9774;52.034;5.342;2023-09-19T11:11:50;100664.00;;;24.10
19282;BMP180;9774;52.034;5.342;2023-09-19T11:14:38;100659.00;;;24.10
19282;BMP180;9774;52.034;5.342;2023-09-19T11:17:34;100664.00;;;24.10
19282;BMP180;9774;52.034;5.342;2023-09-19T11:20:24;100655.00;;;24.20
19282;BMP180;9774;52.034;5.342;2023-09-19T11:23:20;100662.00;;;24.20
19282;BMP180;9774;52.034;5.342;2023-09-19T11:25:53;100666.00;;;24.40
19282;BMP180;9774;52.034;5.342;2023-09-19T11:28:37;100668.00;;;24.30
19282;BMP180;9774;52.034;5.342;2023-09-19T11:31:50;100652.00;;;24.30
19282;BMP180;9774;52.034;5.342;2023-09-19T11:34:44;100658.00;;;24.30
19282;BMP180;9774;52.034;5.342;2023-09-19T11:38:00;100652.00;;;24.30
19282;BMP180;9774;52.034;5.342;2023-09-19T11:40:37;100653.00;;;24.40
19282;BMP180;9774;52.034;5.342;2023-09-19T11:43:31;100643.00;;;24.30
19282;BMP180;9774;52.034;5.342;2023-09-19T11:46:07;100636.00;;;24.50
19282;BMP180;9774;52.034;5.342;2023-09-19T11:48:35;100639.00;;;24.60
19282;BMP180;9774;52.034;5.342;2023-09-19T11:51:16;100631.00;;;24.50
19282;BMP180;9774;52.034;5.342;2023-09-19T11:53:49;100637.00;;;24.70
19282;BMP180;9774;52.034;5.342;2023-09-19T11:56:18;100640.00;;;24.70
19282;BMP180;9774;52.034;5.342;2023-09-19T11:58:51;100639.00;;;24.70
19282;BMP180;9774;52.034;5.342;2023-09-19T12:01:29;100634.00;;;24.70
19282;BMP180;9774;52.034;5.342;2023-09-19T12:03:59;100633.00;;;24.70
19282;BMP180;9774;52.034;5.342;2023-09-19T12:06:29;100644.00;;;24.70
19282;BMP180;9774;52.034;5.342;2023-09-19T12:08:56;100653.00;;;24.70
19282;BMP180;9774;52.034;5.342;2023-09-19T12:11:31;100660.00;;;24.60
19282;BMP180;9774;52.034;5.342;2023-09-19T12:13:59;100667.00;;;24.60
19282;BMP180;9774;52.034;5.342;2023-09-19T12:16:28;100653.00;;;24.60
19282;BMP180;9774;52.034;5.342;2023-09-19T12:18:57;100656.00;;;24.60
19282;BMP180;9774;52.034;5.342;2023-09-19T12:21:27;100646.00;;;24.50
19282;BMP180;9774;52.034;5.342;2023-09-19T12:24:05;100650.00;;;24.40
19282;BMP180;9774;52.034;5.342;2023-09-19T12:26:40;100653.00;;;24.40
19282;BMP180;9774;52.034;5.342;2023-09-19T12:29:17;100652.00;;;24.40
19282;BMP180;9774;52.034;5.342;2023-09-19T12:31:53;100648.00;;;24.40
19282;BMP180;9774;52.034;5.342;2023-09-19T12:34:25;100629.00;;;24.50
19282;BMP180;9774;52.034;5.342;2023-09-19T12:37:10;100651.00;;;24.30
19282;BMP180;9774;52.034;5.342;2023-09-19T12:39:49;100639.00;;;24.40
19282;BMP180;9774;52.034;5.342;2023-09-19T12:42:19;100648.00;;;24.40
19282;BMP180;9774;52.034;5.342;2023-09-19T12:44:49;100640.00;;;24.30
19282;BMP180;9774;52.034;5.342;2023-09-19T12:47:19;100658.00;;;24.30
19282;BMP180;9774;52.034;5.342;2023-09-19T12:50:09;100633.00;;;24.10
19282;BMP180;9774;52.034;5.342;2023-09-19T12:52:47;100648.00;;;24.20
19282;BMP180;9774;52.034;5.342;2023-09-19T12:55:26;100652.00;;;24.10
19282;BMP180;9774;52.034;5.342;2023-09-19T12:58:08;100655.00;;;24.10
19282;BMP180;9774;52.034;5.342;2023-09-19T13:00:38;100660.00;;;24.10
19282;BMP180;9774;52.034;5.342;2023-09-19T13:03:16;100639.00;;;24.10
19282;BMP180;9774;52.034;5.342;2023-09-19T13:05:53;100653.00;;;24.10
19282;BMP180;9774;52.034;5.342;2023-09-19T13:08:26;100653.00;;;24.10
19282;BMP180;9774;52.034;5.342;2023-09-19T13:11:10;100647.00;;;24.00
19282;BMP180;9774;52.034;5.342;2023-09-19T13:13:43;100643.00;;;24.10
19282;BMP180;9774;52.034;5.342;2023-09-19T13:16:15;100668.00;;;24.10
19282;BMP180;9774;52.034;5.342;2023-09-19T13:18:48;100659.00;;;24.10
19282;BMP180;9774;52.034;5.342;2023-09-19T13:21:28;100656.00;;;24.00
19282;BMP180;9774;52.034;5.342;2023-09-19T13:24:20;100661.00;;;24.00
19282;BMP180;9774;52.034;5.342;2023-09-19T13:26:48;100658.00;;;24.10
19282;BMP180;9774;52.034;5.342;2023-09-19T13:29:15;100653.00;;;24.10
19282;BMP180;9774;52.034;5.342;2023-09-19T13:31:46;100655.00;;;24.00
19282;BMP180;9774;52.034;5.342;2023-09-19T13:34:15;100651.00;;;24.10
19282;BMP180;9774;52.034;5.342;2023-09-19T13:36:43;100649.00;;;24.10
19282;BMP180;9774;52.034;5.342;2023-09-19T13:39:10;100655.00;;;24.10
19282;BMP180;9774;52.034;5.342;2023-09-19T13:41:39;100647.00;;;24.20
19282;BMP180;9774;52.034;5.342;2023-09-19T13:44:06;100649.00;;;24.20
19282;BMP180;9774;52.034;5.342;2023-09-19T13:46:36;100647.00;;;24.30
19282;BMP180;9774;52.034;5.342;2023-09-19T13:49:03;100644.00;;;24.30
19282;BMP180;9774;52.034;5.342;2023-09-19T13:51:32;100640.00;;;24.30
19282;BMP180;9774;52.034;5.342;2023-09-19T13:53:59;100634.00;;;24.30
19282;BMP180;9774;52.034;5.342;2023-09-19T13:56:26;100637.00;;;24.30
19282;BMP180;9774;52.034;5.342;2023-09-19T13:58:55;100635.00;;;24.30
19282;BMP180;9774;52.034;5.342;2023-09-19T14:01:22;100620.00;;;24.30
19282;BMP180;9774;52.034;5.342;2023-09-19T14:03:49;100626.00;;;24.30
19282;BMP180;9774;52.034;5.342;2023-09-19T14:06:17;100631.00;;;24.40
19282;BMP180;9774;52.034;5.342;2023-09-19T14:08:45;100633.00;;;24.30
19282;BMP180;9774;52.034;5.342;2023-09-19T14:11:14;100626.00;;;24.30
19282;BMP180;9774;52.034;5.342;2023-09-19T14:13:42;100628.00;;;24.30
19282;BMP180;9774;52.034;5.342;2023-09-19T14:16:13;100632.00;;;24.30
19282;BMP180;9774;52.034;5.342;2023-09-19T14:18:39;100629.00;;;24.30
19282;BMP180;9774;52.034;5.342;2023-09-19T14:21:07;100632.00;;;24.30
19282;BMP180;9774;52.034;5.342;2023-09-19T14:23:37;100637.00;;;24.30
19282;BMP180;9774;52.034;5.342;2023-09-19T14:26:05;100647.00;;;24.30
19282;BMP180;9774;52.034;5.342;2023-09-19T14:28:32;100635.00;;;24.30
19282;BMP180;9774;52.034;5.342;2023-09-19T14:31:05;100628.00;;;24.20